Time;durP1;ratioP1;P1;durP2;ratioP2;P2;SDS_P1;SDS_P2;PMS_P1;PMS_P2;Temp;Humidity;BMP_temperature;BMP_pressure;BME280_temperature;BME280_humidity;BME280_pressure;Samples;Min_cycle;Max_cycle;Signal;HPM_P1;HPM_P2
2021/04/08 00:01:41;;;;;;;1.30;0.77;;;16.20;49.90;;;;;;4808420;29;20795;-82
2021/04/08 00:04:07;;;;;;;0.87;0.50;;;16.10;49.80;;;;;;4817963;29;20238;-83
2021/04/08 00:06:33;;;;;;;1.73;0.80;;;16.10;49.90;;;;;;4785630;29;20200;-83
2021/04/08 00:09:05;;;;;;;1.93;0.73;;;16.20;49.90;;;;;;4778491;29;20210;-82
2021/04/08 00:11:31;;;;;;;1.67;0.80;;;16.20;49.90;;;;;;4808293;29;20204;-83
2021/04/08 00:13:57;;;;;;;1.90;0.97;;;16.10;50.00;;;;;;4808505;29;20218;-82
2021/04/08 00:16:24;;;;;;;1.93;0.70;;;16.20;49.90;;;;;;4796932;29;20598;-80
2021/04/08 00:18:50;;;;;;;3.60;0.83;;;16.10;49.90;;;;;;4791364;29;20239;-82
2021/04/08 00:21:17;;;;;;;2.07;0.70;;;16.10;49.90;;;;;;4807402;29;20211;-82
2021/04/08 00:23:43;;;;;;;3.23;0.70;;;16.10;49.90;;;;;;4807313;29;20677;-82
2021/04/08 00:26:10;;;;;;;1.03;0.70;;;16.10;49.90;;;;;;4808588;29;20286;-83
2021/04/08 00:28:36;;;;;;;1.37;0.70;;;16.10;49.90;;;;;;4799573;29;20211;-82
2021/04/08 00:31:07;;;;;;;2.30;0.70;;;16.10;50.00;;;;;;4792060;29;20199;-83
2021/04/08 00:33:34;;;;;;;1.37;0.80;;;16.20;50.00;;;;;;4808698;29;20200;-83
2021/04/08 00:36:00;;;;;;;2.87;0.87;;;16.20;50.00;;;;;;4783340;29;20717;-83
2021/04/08 00:38:26;;;;;;;0.90;0.60;;;16.10;50.00;;;;;;4801008;29;20261;-84
2021/04/08 00:40:54;;;;;;;1.90;0.83;;;16.20;50.00;;;;;;4795948;29;20566;-83
2021/04/08 00:43:20;;;;;;;3.23;0.90;;;16.10;50.00;;;;;;4793491;29;20207;-84
2021/04/08 00:45:46;;;;;;;1.93;0.90;;;16.10;50.60;;;;;;4807212;29;20203;-84
2021/04/08 00:48:12;;;;;;;1.53;0.87;;;16.20;50.00;;;;;;4807939;29;20199;-83
2021/04/08 00:50:39;;;;;;;1.27;0.70;;;16.10;50.00;;;;;;4786592;29;20208;-84
2021/04/08 00:53:13;;;;;;;1.27;0.60;;;16.10;50.00;;;;;;4800264;29;20571;-84
2021/04/08 00:55:41;;;;;;;2.10;0.80;;;16.10;50.00;;;;;;4806696;29;20226;-84
2021/04/08 00:58:08;;;;;;;1.47;0.70;;;16.10;49.90;;;;;;4788531;29;20244;-84
2021/04/08 01:00:39;;;;;;;1.27;0.50;;;16.10;49.90;;;;;;4790189;29;20688;-83
2021/04/08 01:03:08;;;;;;;2.03;0.70;;;16.10;50.00;;;;;;4774273;30;20208;-83
2021/04/08 01:05:34;;;;;;;4.27;0.80;;;16.10;49.90;;;;;;4803216;29;20584;-83
2021/04/08 01:08:01;;;;;;;2.20;0.87;;;16.10;49.90;;;;;;4799784;29;20563;-84
2021/04/08 01:10:28;;;;;;;1.43;0.70;;;16.10;50.00;;;;;;4793835;29;20218;-83
2021/04/08 01:13:00;;;;;;;1.17;0.60;;;16.10;50.00;;;;;;4797857;29;20199;-84
2021/04/08 01:15:26;;;;;;;1.03;0.60;;;16.10;49.90;;;;;;4806301;29;20230;-83
2021/04/08 01:18:20;;;;;;;2.57;0.80;;;16.10;50.00;;;;;;4774261;30;20214;-83
2021/04/08 01:21:01;;;;;;;1.33;0.60;;;16.10;49.90;;;;;;4796514;29;20680;-85
2021/04/08 01:23:32;;;;;;;1.87;0.70;;;16.10;49.90;;;;;;4807128;29;20560;-84
2021/04/08 01:26:36;;;;;;;1.70;0.70;;;16.10;49.90;;;;;;4805771;29;20199;-84
2021/04/08 01:29:12;;;;;;;2.30;0.73;;;16.10;49.90;;;;;;4806683;29;20727;-84
2021/04/08 01:31:40;;;;;;;3.57;0.70;;;16.10;49.90;;;;;;4791998;29;20568;-84
2021/04/08 01:34:13;;;;;;;1.37;0.50;;;16.00;49.80;;;;;;4772449;30;20206;-84
2021/04/08 01:36:47;;;;;;;1.90;0.90;;;16.10;49.90;;;;;;4788393;29;20240;-84
2021/04/08 01:39:16;;;;;;;1.20;0.53;;;16.10;49.90;;;;;;4793600;29;20215;-83
2021/04/08 01:41:45;;;;;;;2.60;0.77;;;16.00;49.80;;;;;;4798620;29;20211;-84
2021/04/08 01:44:20;;;;;;;2.70;0.80;;;16.00;49.80;;;;;;4789914;29;20203;-85
2021/04/08 01:46:55;;;;;;;1.53;0.60;;;16.10;49.90;;;;;;4788646;29;20748;-84
2021/04/08 01:49:27;;;;;;;1.63;0.70;;;16.10;49.90;;;;;;4804810;29;20242;-83
2021/04/08 01:52:02;;;;;;;1.80;0.57;;;16.10;49.80;;;;;;4806544;29;20227;-83
2021/04/08 01:54:35;;;;;;;1.80;0.53;;;16.10;49.90;;;;;;4799266;29;20237;-83
2021/04/08 01:57:05;;;;;;;1.33;0.60;;;16.00;49.80;;;;;;4796317;29;20202;-83
2021/04/08 01:59:33;;;;;;;1.97;0.67;;;16.10;49.90;;;;;;4806387;29;20230;-83
2021/04/08 02:02:00;;;;;;;1.23;0.70;;;16.00;49.80;;;;;;4801151;29;20620;-82
2021/04/08 02:04:28;;;;;;;1.83;0.70;;;16.00;49.80;;;;;;4795017;29;20219;-83
2021/04/08 02:06:57;;;;;;;1.57;0.70;;;16.10;49.90;;;;;;4791625;29;20203;-82
2021/04/08 02:09:24;;;;;;;1.30;0.60;;;16.00;49.80;;;;;;4792730;29;20232;-82
2021/04/08 02:11:52;;;;;;;1.27;0.63;;;16.00;49.80;;;;;;4802514;29;20206;-83
2021/04/08 02:14:22;;;;;;;1.37;0.57;;;16.00;49.80;;;;;;4805197;29;20460;-83
2021/04/08 02:16:50;;;;;;;1.53;0.60;;;16.00;49.90;;;;;;4791157;29;20709;-84
2021/04/08 02:19:21;;;;;;;2.23;0.67;;;16.10;49.90;;;;;;4806148;29;20243;-83
2021/04/08 02:21:50;;;;;;;1.23;0.67;;;16.00;49.80;;;;;;4798134;29;20215;-83
2021/04/08 02:24:20;;;;;;;1.70;0.60;;;16.00;49.90;;;;;;4805065;29;20198;-82
2021/04/08 02:26:49;;;;;;;0.77;0.60;;;16.00;49.90;;;;;;4806006;29;20572;-84
2021/04/08 02:29:18;;;;;;;1.23;0.77;;;16.00;49.90;;;;;;4793079;29;20210;-83
2021/04/08 02:31:46;;;;;;;2.93;0.87;;;16.00;49.90;;;;;;4787368;29;20184;-83
2021/04/08 02:34:12;;;;;;;1.53;0.80;;;16.00;49.90;;;;;;4788542;29;20683;-83
2021/04/08 02:36:41;;;;;;;1.77;0.50;;;16.00;50.50;;;;;;4787589;29;20240;-82
2021/04/08 02:39:09;;;;;;;1.90;0.90;;;16.00;49.90;;;;;;4787443;29;20224;-82
2021/04/08 02:41:46;;;;;;;1.47;0.60;;;16.00;49.90;;;;;;4792398;29;20540;-83
2021/04/08 02:44:14;;;;;;;2.87;0.60;;;16.00;49.90;;;;;;4803771;29;20240;-83
2021/04/08 02:46:43;;;;;;;0.67;0.47;;;16.00;49.90;;;;;;4789096;29;20203;-82
2021/04/08 02:49:12;;;;;;;1.57;0.70;;;16.00;49.90;;;;;;4804175;29;20252;-83
2021/04/08 02:51:48;;;;;;;3.00;0.40;;;16.00;50.00;;;;;;4806229;29;20211;-83
2021/04/08 02:54:36;;;;;;;2.00;0.70;;;16.00;50.00;;;;;;4804328;29;20195;-83
2021/04/08 02:57:03;;;;;;;2.00;0.70;;;16.00;49.90;;;;;;4788443;29;20211;-83
2021/04/08 02:59:47;;;;;;;1.47;0.80;;;16.00;49.90;;;;;;4799264;29;20246;-84
2021/04/08 03:02:17;;;;;;;0.80;0.40;;;16.00;49.90;;;;;;4799373;29;20196;-84
2021/04/08 03:04:47;;;;;;;2.97;0.63;;;16.00;49.90;;;;;;4776258;29;20259;-84
2021/04/08 03:07:18;;;;;;;1.47;0.80;;;16.00;50.00;;;;;;4798554;29;20191;-84
2021/04/08 03:09:46;;;;;;;2.93;0.80;;;16.00;49.90;;;;;;4776725;30;20216;-84
2021/04/08 03:12:15;;;;;;;2.80;0.60;;;16.00;50.00;;;;;;4795964;29;20668;-84
2021/04/08 03:14:46;;;;;;;0.50;0.30;;;16.00;49.90;;;;;;4806197;29;20234;-84
2021/04/08 03:17:17;;;;;;;1.53;0.60;;;16.00;49.90;;;;;;4803015;29;20215;-84
2021/04/08 03:19:46;;;;;;;1.17;0.77;;;16.00;49.90;;;;;;4788070;29;20211;-84
2021/04/08 03:22:14;;;;;;;0.90;0.50;;;16.00;49.90;;;;;;4772531;30;20904;-84
2021/04/08 03:24:41;;;;;;;1.67;0.60;;;16.00;49.90;;;;;;4797735;29;20210;-83
2021/04/08 03:27:09;;;;;;;2.20;0.90;;;16.00;49.90;;;;;;4804125;29;20668;-85
2021/04/08 03:29:39;;;;;;;1.77;0.77;;;15.90;49.80;;;;;;4799247;29;20199;-84
2021/04/08 03:32:07;;;;;;;1.70;0.60;;;16.00;49.90;;;;;;4801772;29;20211;-84
2021/04/08 03:34:37;;;;;;;1.00;0.50;;;16.00;49.90;;;;;;4795825;29;20198;-84
2021/04/08 03:37:04;;;;;;;1.40;0.70;;;16.00;49.90;;;;;;4804566;29;20234;-84
2021/04/08 03:39:31;;;;;;;1.17;0.70;;;16.00;49.90;;;;;;4788834;29;20595;-84
2021/04/08 03:41:58;;;;;;;3.43;0.70;;;16.00;50.00;;;;;;4784044;29;20214;-84
2021/04/08 03:44:25;;;;;;;1.03;0.50;;;16.00;50.00;;;;;;4805986;29;20214;-84
2021/04/08 03:46:57;;;;;;;0.93;0.70;;;16.00;50.00;;;;;;4789324;29;20191;-84
2021/04/08 03:49:25;;;;;;;2.23;0.70;;;16.00;49.90;;;;;;4791866;29;20211;-83
2021/04/08 03:51:53;;;;;;;1.87;0.77;;;16.00;50.00;;;;;;4802131;29;20195;-84
2021/04/08 03:54:22;;;;;;;1.47;0.67;;;16.00;50.00;;;;;;4780844;30;20891;-84
2021/04/08 03:56:51;;;;;;;0.90;0.57;;;15.90;50.00;;;;;;4793442;29;20212;-85
2021/04/08 03:59:18;;;;;;;2.30;0.87;;;16.00;50.60;;;;;;4792646;29;20230;-84
2021/04/08 04:01:45;;;;;;;2.87;0.80;;;16.00;50.00;;;;;;4809361;29;20229;-84
2021/04/08 04:04:14;;;;;;;2.07;0.90;;;16.00;50.10;;;;;;4807902;29;20231;-85
2021/04/08 04:06:43;;;;;;;1.07;0.70;;;15.90;50.00;;;;;;4807622;29;20191;-84
2021/04/08 04:09:12;;;;;;;1.07;0.60;;;16.00;50.00;;;;;;4808107;29;20210;-84
2021/04/08 04:11:41;;;;;;;1.03;0.60;;;16.00;50.00;;;;;;4795907;29;20196;-84
2021/04/08 04:14:14;;;;;;;1.73;0.70;;;16.00;50.00;;;;;;4790671;29;20238;-83
2021/04/08 04:20:22;;;;;;;2.60;0.90;;;16.00;50.00;;;;;;4793355;29;20505;-83
2021/04/08 04:22:50;;;;;;;1.67;0.83;;;15.90;50.00;;;;;;4808209;29;20199;-84
2021/04/08 04:25:17;;;;;;;0.73;0.60;;;16.00;50.10;;;;;;4794422;29;20414;-84
2021/04/08 04:27:44;;;;;;;2.60;1.00;;;16.00;50.10;;;;;;4801180;29;20656;-84
2021/04/08 04:30:14;;;;;;;1.53;0.80;;;15.90;50.00;;;;;;4794709;29;20204;-83
2021/04/08 04:32:43;;;;;;;1.63;0.50;;;15.90;50.00;;;;;;4790411;29;20229;-84
2021/04/08 04:35:10;;;;;;;2.43;0.93;;;15.90;50.00;;;;;;4807033;29;20637;-84
2021/04/08 04:37:37;;;;;;;1.57;0.80;;;15.90;50.00;;;;;;4806293;29;20186;-84
2021/04/08 04:40:04;;;;;;;1.37;0.73;;;15.90;50.00;;;;;;4791689;29;20250;-84
2021/04/08 04:42:31;;;;;;;1.87;0.73;;;15.90;50.00;;;;;;4790309;29;20670;-83
2021/04/08 04:44:58;;;;;;;2.00;0.83;;;15.90;50.00;;;;;;4805780;29;20218;-85
2021/04/08 04:47:26;;;;;;;2.00;0.90;;;15.90;50.10;;;;;;4778322;29;20210;-84
2021/04/08 04:49:55;;;;;;;1.10;0.80;;;15.90;50.10;;;;;;4792175;29;20577;-84
2021/04/08 04:52:21;;;;;;;0.80;0.60;;;15.90;50.10;;;;;;4790144;29;20226;-84
2021/04/08 04:54:47;;;;;;;1.00;0.70;;;15.90;50.10;;;;;;4804053;29;20268;-85
2021/04/08 04:57:13;;;;;;;2.57;1.00;;;15.90;50.30;;;;;;4807658;29;20207;-84
2021/04/08 04:59:40;;;;;;;2.40;0.90;;;15.90;50.30;;;;;;4806851;29;20195;-83
2021/04/08 05:02:07;;;;;;;1.37;0.80;;;15.90;50.30;;;;;;4782858;29;20207;-83
2021/04/08 05:04:34;;;;;;;2.13;1.00;;;15.90;50.40;;;;;;4800715;29;20207;-82
2021/04/08 05:07:00;;;;;;;1.53;0.77;;;15.90;50.60;;;;;;4800265;29;20199;-82
2021/04/08 05:09:26;;;;;;;1.97;0.80;;;15.90;50.60;;;;;;4806509;29;20199;-83
2021/04/08 05:11:55;;;;;;;1.70;0.87;;;15.90;50.70;;;;;;4798255;29;20649;-83
2021/04/08 05:14:21;;;;;;;1.77;0.90;;;16.00;50.70;;;;;;4789533;30;20478;-83
2021/04/08 05:16:47;;;;;;;2.03;1.00;;;15.90;50.80;;;;;;4773641;29;20273;-83
2021/04/08 05:19:14;;;;;;;1.33;0.80;;;15.90;50.70;;;;;;4789360;29;20228;-82
2021/04/08 05:21:40;;;;;;;1.87;1.10;;;15.90;50.80;;;;;;4802943;29;20199;-83
2021/04/08 05:24:07;;;;;;;2.07;0.97;;;15.90;50.80;;;;;;4806175;29;20199;-82
2021/04/08 05:26:34;;;;;;;1.10;0.77;;;15.90;51.00;;;;;;4806552;29;20206;-82
2021/04/08 05:29:00;;;;;;;3.40;1.00;;;15.90;50.90;;;;;;4806845;29;20282;-83
2021/04/08 05:31:26;;;;;;;3.93;1.20;;;15.90;50.80;;;;;;4804786;29;20231;-84
2021/04/08 05:33:52;;;;;;;1.77;1.27;;;15.90;50.70;;;;;;4802010;29;20199;-84
2021/04/08 05:36:48;;;;;;;2.50;0.90;;;15.90;50.60;;;;;;4803173;29;20235;-87
2021/04/08 05:39:17;;;;;;;1.80;1.10;;;15.90;50.60;;;;;;4805229;29;20238;-85
2021/04/08 05:41:50;;;;;;;2.10;0.80;;;16.00;50.60;;;;;;4803173;29;20213;-82
2021/04/08 05:44:16;;;;;;;2.13;1.20;;;15.90;50.50;;;;;;4806032;29;20199;-81
2021/04/08 05:46:43;;;;;;;1.57;1.17;;;15.90;50.40;;;;;;4822458;29;20209;-84
2021/04/08 05:49:12;;;;;;;1.93;1.10;;;15.90;50.30;;;;;;4794743;29;20219;-86
2021/04/08 05:51:38;;;;;;;21.37;5.37;;;16.00;50.30;;;;;;4790341;29;20288;-82
2021/04/08 05:54:15;;;;;;;22.47;6.17;;;15.90;50.90;;;;;;4805371;29;20214;-85
2021/04/08 05:56:41;;;;;;;32.33;7.20;;;16.00;52.50;;;;;;4803282;29;20202;-80
2021/04/08 05:59:13;;;;;;;31.67;7.40;;;16.00;52.80;;;;;;4794734;29;20599;-83
2021/04/08 06:01:43;;;;;;;33.00;7.17;;;16.00;52.50;;;;;;4784030;29;20203;-81
2021/04/08 06:04:11;;;;;;;21.00;6.13;;;16.00;52.10;;;;;;4804797;29;20210;-81
2021/04/08 06:06:38;;;;;;;21.23;6.87;;;16.00;51.80;;;;;;4786311;29;20212;-80
2021/04/08 06:09:04;;;;;;;25.63;7.03;;;16.00;51.60;;;;;;4805964;29;20198;-81
2021/04/08 06:11:40;;;;;;;23.97;7.13;;;16.00;51.40;;;;;;4806258;29;20271;-83
2021/04/08 06:14:06;;;;;;;20.97;5.73;;;16.00;51.30;;;;;;4806468;29;20231;-83
2021/04/08 06:16:35;;;;;;;18.67;5.60;;;16.00;51.20;;;;;;4803889;29;20214;-85
2021/04/08 06:19:02;;;;;;;17.10;6.03;;;16.00;52.30;;;;;;4801664;29;20219;-83
2021/04/08 06:21:28;;;;;;;18.40;5.90;;;16.00;52.90;;;;;;4811675;29;20199;-81
2021/04/08 06:23:56;;;;;;;24.63;6.60;;;16.00;52.70;;;;;;4788238;29;20695;-80
2021/04/08 06:26:22;;;;;;;16.30;5.70;;;16.00;52.20;;;;;;4806845;29;20606;-80
2021/04/08 06:28:48;;;;;;;20.23;5.17;;;16.00;51.90;;;;;;4804455;29;20207;-80
2021/04/08 06:31:18;;;;;;;13.97;5.27;;;16.00;51.80;;;;;;4803747;29;20218;-81
2021/04/08 06:33:45;;;;;;;15.17;4.93;;;16.00;51.60;;;;;;4801954;29;20195;-81
2021/04/08 06:36:12;;;;;;;15.17;5.20;;;16.00;51.50;;;;;;4804475;29;20235;-81
2021/04/08 06:38:41;;;;;;;12.73;4.60;;;16.00;51.20;;;;;;4807885;29;20237;-83
2021/04/08 06:41:08;;;;;;;10.87;3.77;;;16.00;51.20;;;;;;4809417;29;20593;-80
2021/04/08 06:43:38;;;;;;;14.43;4.37;;;16.00;51.20;;;;;;4802798;29;20712;-80
2021/04/08 06:46:06;;;;;;;14.37;4.17;;;16.00;51.10;;;;;;4806338;29;20203;-80
2021/04/08 06:48:46;;;;;;;9.50;3.80;;;16.00;51.00;;;;;;4804680;29;20214;-83
2021/04/08 06:51:20;;;;;;;9.40;3.93;;;16.00;51.20;;;;;;4797147;29;20218;-83
2021/04/08 06:53:50;;;;;;;9.70;3.70;;;16.00;51.30;;;;;;4803336;29;20673;-83
2021/04/08 06:56:17;;;;;;;9.23;3.57;;;16.00;51.40;;;;;;4819776;29;20202;-82
2021/04/08 06:58:44;;;;;;;8.87;3.53;;;16.00;51.20;;;;;;4806848;29;20223;-82
2021/04/08 07:01:31;;;;;;;9.83;3.67;;;16.00;52.70;;;;;;4809621;29;20196;-82
2021/04/08 07:03:58;;;;;;;8.53;3.53;;;16.00;52.30;;;;;;4806878;29;20201;-82
2021/04/08 07:06:24;;;;;;;8.23;3.20;;;16.00;51.90;;;;;;4806256;29;20552;-82
2021/04/08 07:08:50;;;;;;;8.33;3.00;;;16.10;51.80;;;;;;4788909;29;20214;-80
2021/04/08 07:11:18;;;;;;;7.80;3.30;;;16.00;52.30;;;;;;4806831;29;20211;-80
2021/04/08 07:13:44;;;;;;;8.23;2.90;;;16.00;51.60;;;;;;4803476;29;20231;-82
2021/04/08 07:16:14;;;;;;;6.37;2.90;;;16.00;51.40;;;;;;4814039;29;20210;-81
2021/04/08 07:18:41;;;;;;;6.83;3.00;;;16.00;51.40;;;;;;4816634;29;20203;-81
2021/04/08 07:21:07;;;;;;;6.10;2.57;;;16.00;51.20;;;;;;4803677;29;20199;-87
2021/04/08 07:23:34;;;;;;;7.37;2.70;;;16.00;51.10;;;;;;4795513;29;20219;-80
2021/04/08 07:26:11;;;;;;;6.00;2.57;;;16.00;51.10;;;;;;4825167;29;20233;-81
2021/04/08 07:28:41;;;;;;;5.83;2.90;;;16.00;51.00;;;;;;4808065;29;20202;-81
2021/04/08 07:31:26;;;;;;;5.70;2.87;;;16.00;51.00;;;;;;4823154;29;20198;-80
2021/04/08 07:33:55;;;;;;;6.17;2.70;;;16.00;50.80;;;;;;4819097;29;20196;-80
2021/04/08 07:36:26;;;;;;;5.97;2.87;;;16.10;50.80;;;;;;4821035;29;20246;-82
2021/04/08 07:38:57;;;;;;;7.43;2.77;;;16.10;50.70;;;;;;4805163;29;20234;-81
2021/04/08 07:41:30;;;;;;;6.20;2.23;;;16.00;50.60;;;;;;4809794;29;20211;-82
2021/04/08 07:44:06;;;;;;;4.53;2.50;;;16.00;50.60;;;;;;4819374;29;20213;-81
2021/04/08 07:46:34;;;;;;;4.53;2.40;;;16.10;50.50;;;;;;4809850;29;20569;-82
2021/04/08 07:49:01;;;;;;;3.83;2.07;;;16.00;50.40;;;;;;4821226;29;20644;-82
2021/04/08 07:51:36;;;;;;;4.57;2.17;;;16.00;50.40;;;;;;4817639;29;20210;-82
2021/04/08 07:54:12;;;;;;;4.13;2.20;;;16.00;50.30;;;;;;4808196;29;20191;-81
2021/04/08 07:56:38;;;;;;;6.17;2.30;;;16.10;50.30;;;;;;4819572;29;20323;-81
2021/04/08 07:59:34;;;;;;;5.80;2.23;;;16.10;50.30;;;;;;4805544;29;20227;-81
2021/04/08 08:02:03;;;;;;;3.00;1.93;;;16.10;50.30;;;;;;4814666;29;20218;-80
2021/04/08 08:04:30;;;;;;;2.70;1.73;;;16.10;50.30;;;;;;4813967;29;20259;-81
2021/04/08 08:06:57;;;;;;;4.63;2.33;;;16.10;50.10;;;;;;4818622;29;20664;-81
2021/04/08 08:09:27;;;;;;;4.43;1.57;;;16.10;50.10;;;;;;4816466;29;20748;-80
2021/04/08 08:11:57;;;;;;;5.47;2.23;;;16.10;50.00;;;;;;4820922;29;20302;-80
2021/04/08 08:14:40;;;;;;;3.37;1.67;;;16.10;50.00;;;;;;4820187;29;20190;-80
2021/04/08 08:17:15;;;;;;;3.60;1.50;;;16.10;49.90;;;;;;4806729;29;20199;-80
2021/04/08 08:19:45;;;;;;;5.53;2.03;;;16.10;50.00;;;;;;4823548;29;20221;-81
2021/04/08 08:22:20;;;;;;;4.00;2.00;;;16.10;50.10;;;;;;4817419;29;20198;-81
2021/04/08 08:24:59;;;;;;;3.70;1.90;;;16.10;49.80;;;;;;4814944;29;20178;-84
2021/04/08 08:27:43;;;;;;;2.77;1.80;;;16.10;49.80;;;;;;4808251;29;20206;-81
2021/04/08 08:30:51;;;;;;;3.97;2.10;;;16.10;50.00;;;;;;4791028;29;20561;-81
2021/04/08 08:33:23;;;;;;;3.20;1.63;;;16.20;50.00;;;;;;4805679;29;20661;-82
2021/04/08 08:35:49;;;;;;;5.27;1.90;;;16.20;49.90;;;;;;4809485;29;20250;-81
2021/04/08 08:38:18;;;;;;;4.13;1.70;;;16.20;49.90;;;;;;4816062;29;20203;-82
2021/04/08 08:40:47;;;;;;;2.80;1.80;;;16.20;50.00;;;;;;4813592;29;20245;-82
2021/04/08 08:43:16;;;;;;;2.40;1.77;;;16.20;50.00;;;;;;4815575;29;20680;-82
2021/04/08 08:45:43;;;;;;;3.50;1.70;;;16.20;49.90;;;;;;4811620;29;20209;-82
2021/04/08 08:48:19;;;;;;;2.40;1.60;;;16.20;49.80;;;;;;4814244;29;20197;-80
2021/04/08 08:50:49;;;;;;;2.10;1.67;;;16.20;49.70;;;;;;4816073;29;20190;-82
2021/04/08 08:53:17;;;;;;;2.57;1.67;;;16.20;49.80;;;;;;4818835;29;20203;-82
2021/04/08 08:55:43;;;;;;;2.83;1.50;;;16.30;49.70;;;;;;4818579;29;20209;-82
2021/04/08 08:58:13;;;;;;;3.43;1.73;;;16.30;49.80;;;;;;4818055;29;20291;-83
2021/04/08 09:00:39;;;;;;;2.70;1.50;;;16.30;49.70;;;;;;4816955;29;20237;-83
2021/04/08 09:03:06;;;;;;;2.47;1.53;;;16.30;50.30;;;;;;4824120;29;20203;-83
2021/04/08 09:05:35;;;;;;;2.80;1.50;;;16.30;49.80;;;;;;4818018;29;20204;-81
2021/04/08 09:08:13;;;;;;;1.80;1.20;;;16.30;49.60;;;;;;4806565;29;20219;-82
2021/04/08 09:10:51;;;;;;;2.37;1.40;;;16.30;49.70;;;;;;4821918;29;20191;-81
2021/04/08 09:13:19;;;;;;;2.17;1.30;;;16.30;49.60;;;;;;4802672;29;20226;-81
2021/04/08 09:15:45;;;;;;;2.10;1.37;;;16.30;49.60;;;;;;4824574;29;20206;-81
2021/04/08 09:18:13;;;;;;;2.73;1.70;;;16.30;49.70;;;;;;4814895;29;20301;-82
2021/04/08 09:20:40;;;;;;;1.90;1.10;;;16.40;49.60;;;;;;4820560;29;20218;-81
2021/04/08 09:23:12;;;;;;;1.30;1.20;;;16.30;49.50;;;;;;4803439;29;20209;-82
2021/04/08 09:25:45;;;;;;;3.40;1.30;;;16.40;49.60;;;;;;4819261;29;20217;-82
2021/04/08 09:28:14;;;;;;;2.40;1.30;;;16.40;49.50;;;;;;4817853;29;20204;-83
2021/04/08 09:33:40;;;;;;;2.70;1.70;;;16.40;49.50;;;;;;4807320;29;20259;-82
2021/04/08 09:36:22;;;;;;;3.40;1.40;;;16.40;49.30;;;;;;4821510;29;20272;-83
2021/04/08 09:39:13;;;;;;;2.13;1.30;;;16.40;49.50;;;;;;4821243;29;20222;-82
2021/04/08 09:41:58;;;;;;;2.97;1.40;;;16.40;49.30;;;;;;4820885;29;20207;-82
2021/04/08 09:44:27;;;;;;;2.97;1.33;;;16.40;49.40;;;;;;4820129;29;20246;-83
2021/04/08 09:47:03;;;;;;;1.80;1.30;;;16.40;49.40;;;;;;4819150;29;20187;-82
2021/04/08 09:50:00;;;;;;;2.13;1.30;;;16.50;49.30;;;;;;4812834;29;20672;-82
2021/04/08 09:52:30;;;;;;;1.83;1.27;;;16.40;49.10;;;;;;4821965;29;20214;-83
2021/04/08 09:55:01;;;;;;;2.57;1.17;;;16.50;49.20;;;;;;4812126;29;20240;-82
2021/04/08 09:57:41;;;;;;;4.43;2.10;;;16.50;49.20;;;;;;4814243;29;20254;-89
2021/04/08 10:00:18;;;;;;;3.37;1.90;;;16.50;49.60;;;;;;4800578;29;20233;-85
2021/04/08 10:03:06;;;;;;;8.47;1.83;;;16.50;49.70;;;;;;4800017;29;20233;-85
2021/04/08 10:05:40;;;;;;;3.27;1.87;;;16.60;50.10;;;;;;4805722;29;20652;-84
2021/04/08 10:08:09;;;;;;;4.53;2.07;;;16.60;50.20;;;;;;4805183;29;20659;-86
2021/04/08 10:10:36;;;;;;;5.23;2.20;;;16.60;50.40;;;;;;4792033;29;20249;-84
2021/04/08 10:13:20;;;;;;;6.50;1.90;;;16.60;51.10;;;;;;4788134;29;20227;-83
2021/04/08 10:15:47;;;;;;;3.57;2.13;;;16.60;50.60;;;;;;4792313;29;20203;-84
2021/04/08 10:18:19;;;;;;;4.07;2.00;;;16.70;50.50;;;;;;4777824;29;20207;-83
2021/04/08 10:20:48;;;;;;;3.63;2.30;;;16.70;50.50;;;;;;4799280;29;20697;-82
2021/04/08 10:23:38;;;;;;;4.13;1.80;;;16.70;50.50;;;;;;4803339;29;20227;-83
2021/04/08 10:26:22;;;;;;;3.87;2.00;;;16.70;50.40;;;;;;4805990;29;20226;-83
2021/04/08 10:28:50;;;;;;;5.87;1.80;;;16.70;50.20;;;;;;4798247;29;20203;-81
2021/04/08 10:31:24;;;;;;;3.70;1.87;;;16.70;50.20;;;;;;4805757;29;20614;-84
2021/04/08 10:34:01;;;;;;;3.80;1.83;;;16.70;50.10;;;;;;4797489;29;20206;-83
2021/04/08 10:36:34;;;;;;;3.90;2.00;;;16.70;49.90;;;;;;4803799;29;20750;-83
2021/04/08 10:39:20;;;;;;;2.83;1.20;;;16.70;49.80;;;;;;4782904;29;20550;-84
2021/04/08 10:42:00;;;;;;;2.87;1.70;;;16.70;49.70;;;;;;4800590;29;20286;-81
2021/04/08 10:44:33;;;;;;;2.47;1.23;;;16.70;49.70;;;;;;4794735;29;20202;-81
2021/04/08 10:47:19;;;;;;;2.00;1.13;;;16.80;49.70;;;;;;4802908;29;20286;-81
2021/04/08 10:49:55;;;;;;;2.10;1.20;;;16.70;49.60;;;;;;4800405;29;20206;-82
2021/04/08 10:52:36;;;;;;;2.37;1.10;;;16.70;49.50;;;;;;4804721;29;20210;-82
2021/04/08 10:55:05;;;;;;;3.57;1.63;;;16.80;49.40;;;;;;4803115;29;20199;-82
2021/04/08 10:57:32;;;;;;;1.90;1.40;;;16.80;49.40;;;;;;4806865;29;20214;-82
2021/04/08 10:59:59;;;;;;;2.87;1.37;;;16.80;49.30;;;;;;4816494;29;20226;-81
2021/04/08 11:02:35;;;;;;;1.80;1.33;;;16.80;49.20;;;;;;4812916;29;20893;-84
2021/04/08 11:05:18;;;;;;;2.30;1.30;;;16.80;49.10;;;;;;4808877;29;20218;-83
2021/04/08 11:07:48;;;;;;;1.17;1.03;;;16.90;49.10;;;;;;4817202;29;20686;-83
2021/04/08 11:10:24;;;;;;;1.50;1.10;;;16.90;49.00;;;;;;4811223;29;20266;-82
2021/04/08 11:12:52;;;;;;;1.90;1.37;;;16.80;48.80;;;;;;4811155;29;20222;-84
2021/04/08 11:15:23;;;;;;;2.00;1.13;;;16.90;48.90;;;;;;4811031;29;20210;-83
2021/04/08 11:44:24;;;;;;;2.07;1.33;;;16.90;48.50;;;;;;5763270;24;20231;31
2021/04/08 11:46:50;;;;;;;2.07;1.50;;;16.90;48.50;;;;;;4734047;30;20244;-82
2021/04/08 11:49:19;;;;;;;1.57;1.20;;;17.00;48.60;;;;;;4734686;30;20221;-83
2021/04/08 11:51:49;;;;;;;2.37;1.47;;;17.00;48.40;;;;;;4735516;30;20237;-82
2021/04/08 11:54:17;;;;;;;2.53;1.47;;;17.00;48.40;;;;;;4737801;30;20201;-83
2021/04/08 11:56:46;;;;;;;2.40;1.30;;;17.00;49.00;;;;;;4739098;30;20190;-83
2021/04/08 11:59:14;;;;;;;1.87;1.40;;;17.00;48.40;;;;;;4737591;30;20308;-82
2021/04/08 12:01:44;;;;;;;1.77;1.23;;;17.00;48.20;;;;;;4736274;30;20198;-82
2021/04/08 12:04:16;;;;;;;1.70;1.30;;;17.00;48.20;;;;;;4737987;30;20248;-84
2021/04/08 12:06:48;;;;;;;2.77;1.20;;;17.00;48.20;;;;;;4737823;30;20220;-82
2021/04/08 12:09:16;;;;;;;1.37;1.03;;;17.00;48.10;;;;;;4736933;30;20655;-84
2021/04/08 12:11:54;;;;;;;1.77;1.30;;;17.10;48.20;;;;;;4740812;30;20730;-86
2021/04/08 12:14:22;;;;;;;2.13;1.33;;;17.00;48.00;;;;;;4755380;30;20756;-87
2021/04/08 12:17:08;;;;;;;1.60;1.40;;;17.10;48.00;;;;;;4739090;29;20206;-83
2021/04/08 12:19:37;;;;;;;2.30;1.43;;;17.00;47.90;;;;;;4756652;30;20255;-83
2021/04/08 12:22:09;;;;;;;1.60;1.30;;;17.00;47.90;;;;;;4768308;30;20666;-83
2021/04/08 12:24:37;;;;;;;3.30;1.73;;;17.10;47.80;;;;;;4753250;30;20193;-83
2021/04/08 12:27:20;;;;;;;2.60;1.47;;;17.10;47.90;;;;;;4761716;30;20296;-82
2021/04/08 12:29:46;;;;;;;1.60;1.30;;;17.10;47.80;;;;;;4758124;30;20205;-83
2021/04/08 12:32:13;;;;;;;3.37;1.77;;;17.10;47.90;;;;;;4755173;30;20196;-83
2021/04/08 12:34:39;;;;;;;2.33;1.30;;;17.10;47.90;;;;;;4753661;30;20305;-82
2021/04/08 12:37:08;;;;;;;1.67;1.57;;;17.10;48.00;;;;;;4757664;30;20223;-82
2021/04/08 12:39:34;;;;;;;2.23;1.40;;;17.10;47.90;;;;;;4754467;30;20220;-82
2021/04/08 12:42:03;;;;;;;1.77;1.33;;;17.10;47.90;;;;;;4756729;30;20212;-83
2021/04/08 12:44:29;;;;;;;2.20;1.30;;;17.20;48.00;;;;;;4751808;30;20215;-82
2021/04/08 12:46:56;;;;;;;3.83;1.33;;;17.20;47.90;;;;;;4753087;30;20238;-82
2021/04/08 12:49:22;;;;;;;2.13;1.10;;;17.20;48.00;;;;;;4762569;30;20224;-81
2021/04/08 12:51:49;;;;;;;2.37;1.30;;;17.20;48.00;;;;;;4755299;30;20216;-83
2021/04/08 12:54:18;;;;;;;1.73;1.20;;;17.20;48.00;;;;;;4756294;30;20200;-83
2021/04/08 12:56:44;;;;;;;3.03;1.20;;;17.20;47.90;;;;;;4763858;30;20235;-82
2021/04/08 12:59:10;;;;;;;2.30;1.50;;;17.30;48.00;;;;;;4764108;29;21058;-83
2021/04/08 13:01:37;;;;;;;1.47;1.30;;;17.30;48.00;;;;;;4770067;30;20208;-81
2021/04/08 13:24:54;;;;;;;1.73;1.10;;;17.40;48.00;;;;;;4876492;24;20328;-83
2021/04/08 13:27:21;;;;;;;2.40;1.23;;;17.40;48.10;;;;;;4767985;30;20227;-85
2021/04/08 13:29:48;;;;;;;2.40;1.30;;;17.40;48.20;;;;;;4768056;29;20789;-83
2021/04/08 13:32:33;;;;;;;1.40;1.30;;;17.40;48.10;;;;;;4753874;30;20211;-83
2021/04/08 13:35:02;;;;;;;1.67;1.30;;;17.40;48.80;;;;;;4776574;30;20204;-84
2021/04/08 13:37:29;;;;;;;1.67;1.23;;;17.40;48.10;;;;;;4763849;30;20287;-81
2021/04/08 13:39:55;;;;;;;1.73;1.50;;;17.40;48.10;;;;;;4754153;30;20241;-83
2021/04/08 13:42:22;;;;;;;2.50;1.30;;;17.40;48.10;;;;;;4762336;30;20204;-83
2021/04/08 13:44:48;;;;;;;1.53;1.00;;;17.40;48.10;;;;;;4766558;30;20221;-83
2021/04/08 13:47:15;;;;;;;1.30;1.20;;;17.40;48.10;;;;;;4756090;29;20813;-83
2021/04/08 13:49:41;;;;;;;1.23;1.07;;;17.40;48.00;;;;;;4753035;30;20205;-83
2021/04/08 13:52:09;;;;;;;1.87;1.40;;;17.40;48.00;;;;;;4754020;30;20698;-83
2021/04/08 13:54:35;;;;;;;1.63;1.10;;;17.40;48.00;;;;;;4754519;30;20196;-82
2021/04/08 13:57:02;;;;;;;2.73;1.30;;;17.50;48.10;;;;;;4752282;30;20209;-82